createdAt,value
2022-10-22T00:01:45.613Z,11.04
2022-10-22T00:04:12.149Z,11.92
2022-10-22T00:06:38.702Z,11.91
2022-10-22T00:09:06.707Z,11.93
2022-10-22T00:11:33.421Z,11.92
2022-10-22T00:13:59.989Z,11.30
2022-10-22T00:16:26.685Z,11.91
2022-10-22T00:18:53.378Z,11.91
2022-10-22T00:21:20.206Z,11.90
2022-10-22T00:23:46.825Z,11.24
2022-10-22T00:26:13.701Z,11.12
2022-10-22T00:28:40.605Z,11.91
2022-10-22T00:31:07.401Z,11.91
2022-10-22T00:33:34.497Z,11.92
2022-10-22T00:36:01.030Z,11.88
2022-10-22T00:38:27.620Z,10.96
2022-10-22T00:40:54.313Z,11.91
2022-10-22T00:43:21.659Z,11.92
2022-10-22T00:45:48.377Z,11.74
2022-10-22T00:48:20.757Z,11.90
2022-10-22T00:51:01.139Z,11.93
2022-10-22T00:53:37.530Z,11.66
2022-10-22T00:56:05.038Z,11.90
2022-10-22T00:58:36.333Z,11.32
2022-10-22T01:01:05.386Z,11.38
2022-10-22T01:03:32.966Z,11.91
2022-10-22T01:06:01.552Z,10.92
2022-10-22T01:08:48.142Z,11.90
2022-10-22T01:11:20.826Z,11.91
2022-10-22T01:13:57.995Z,11.00
2022-10-22T01:16:35.529Z,11.42
2022-10-22T01:19:08.180Z,11.90
2022-10-22T01:21:45.509Z,11.92
2022-10-22T01:24:38.545Z,11.90
2022-10-22T01:27:24.953Z,11.21
2022-10-22T01:30:03.078Z,11.91
2022-10-22T01:32:32.846Z,11.03
2022-10-22T01:35:07.253Z,11.92
2022-10-22T01:37:40.614Z,11.90
2022-10-22T01:40:09.215Z,11.74
2022-10-22T01:42:36.941Z,11.93
2022-10-22T01:45:11.450Z,11.94
2022-10-22T01:48:11.162Z,11.85
2022-10-22T01:50:56.929Z,11.91
2022-10-22T01:53:38.879Z,11.91
2022-10-22T01:56:20.728Z,11.90
2022-10-22T01:59:04.551Z,11.91
2022-10-22T02:01:44.523Z,11.68
2022-10-22T02:04:26.801Z,11.89
2022-10-22T02:06:57.451Z,11.53
2022-10-22T02:09:27.986Z,11.23
2022-10-22T02:11:55.926Z,11.87
2022-10-22T02:14:24.763Z,10.72
2022-10-22T02:16:51.613Z,11.32
2022-10-22T02:19:36.922Z,11.85
2022-10-22T02:22:04.963Z,11.12
2022-10-22T02:24:31.724Z,11.84
2022-10-22T02:27:04.315Z,11.67
2022-10-22T02:29:35.018Z,11.83
2022-10-22T02:32:05.152Z,11.48
2022-10-22T02:34:32.659Z,11.83
2022-10-22T02:37:02.541Z,11.82
2022-10-22T02:39:31.691Z,11.55
2022-10-22T02:41:58.596Z,11.04
2022-10-22T02:44:25.362Z,11.81
2022-10-22T02:46:52.206Z,11.81
2022-10-22T02:49:18.830Z,11.63
2022-10-22T02:51:45.449Z,10.70
2022-10-22T02:54:12.009Z,11.75
2022-10-22T02:56:38.975Z,11.75
2022-10-22T02:59:05.652Z,11.76
2022-10-22T03:01:32.397Z,10.76
2022-10-22T03:03:58.992Z,11.74
2022-10-22T03:08:57.203Z,11.43
2022-10-22T03:11:23.799Z,11.70
2022-10-22T03:13:50.351Z,11.30
2022-10-22T03:16:17.001Z,10.64
2022-10-22T03:18:43.588Z,10.76
2022-10-22T03:21:25.300Z,11.61
2022-10-22T03:23:52.181Z,11.59
2022-10-22T03:26:19.149Z,10.88
2022-10-22T03:28:47.861Z,11.34
2022-10-22T03:31:14.801Z,11.36
2022-10-22T03:33:41.363Z,11.54
2022-10-22T03:36:09.093Z,11.54
2022-10-22T03:38:38.505Z,11.36
2022-10-22T03:41:05.500Z,10.81
2022-10-22T03:43:35.362Z,10.87
2022-10-22T03:46:01.989Z,11.57
2022-10-22T03:48:28.742Z,11.58
2022-10-22T03:50:55.294Z,11.59
2022-10-22T03:53:22.007Z,11.63
2022-10-22T03:55:48.977Z,11.63
2022-10-22T03:58:15.614Z,11.63
2022-10-22T04:00:42.243Z,11.06
2022-10-22T04:03:08.844Z,11.62
2022-10-22T04:05:35.419Z,11.64
2022-10-22T04:08:02.002Z,11.55
2022-10-22T04:10:28.579Z,11.66
2022-10-22T04:12:55.193Z,11.32
2022-10-22T04:15:22.023Z,11.72
2022-10-22T04:17:48.760Z,10.45
2022-10-22T04:20:15.323Z,11.73
2022-10-22T04:22:41.922Z,11.74
2022-10-22T04:25:08.802Z,11.73
2022-10-22T04:27:35.838Z,10.96
2022-10-22T04:30:04.186Z,11.75
2022-10-22T04:32:30.762Z,11.04
2022-10-22T04:34:57.510Z,11.15
2022-10-22T04:37:24.185Z,11.62
2022-10-22T04:39:50.745Z,10.62
2022-10-22T04:42:17.442Z,11.79
2022-10-22T04:44:44.028Z,11.26
2022-10-22T04:47:10.642Z,11.78
2022-10-22T04:49:37.238Z,11.77
2022-10-22T04:52:03.843Z,11.10
2022-10-22T04:54:32.984Z,10.93
2022-10-22T04:57:00.115Z,11.78
2022-10-22T04:59:26.806Z,11.77
2022-10-22T05:01:53.391Z,11.15
2022-10-22T05:04:19.909Z,11.78
2022-10-22T05:06:47.146Z,11.77
2022-10-22T05:09:16.224Z,10.85
2022-10-22T05:11:48.786Z,11.59
2022-10-22T05:14:23.876Z,11.81
2022-10-22T05:16:51.282Z,11.82
2022-10-22T05:19:29.485Z,11.82
2022-10-22T05:21:58.827Z,11.83
2022-10-22T05:24:26.576Z,11.85
2022-10-22T05:26:54.933Z,11.85
2022-10-22T05:29:22.438Z,11.85
2022-10-22T05:31:49.050Z,11.18
2022-10-22T05:34:15.771Z,11.72
2022-10-22T05:36:42.542Z,11.55
2022-10-22T05:39:09.237Z,11.20
2022-10-22T05:41:35.831Z,11.89
2022-10-22T05:44:03.230Z,11.21
2022-10-22T05:46:33.443Z,11.89
2022-10-22T05:49:02.573Z,11.90
2022-10-22T05:51:31.383Z,11.90
2022-10-22T05:54:01.254Z,11.91
2022-10-22T05:56:30.286Z,11.91
2022-10-22T05:58:57.585Z,11.15
2022-10-22T06:01:29.887Z,11.93
2022-10-22T06:03:59.132Z,11.68
2022-10-22T06:06:30.259Z,11.93
2022-10-22T06:09:20.519Z,11.93
2022-10-22T06:11:47.879Z,11.93
2022-10-22T06:14:15.138Z,11.47
2022-10-22T06:16:41.892Z,11.63
2022-10-22T06:19:11.202Z,11.89
2022-10-22T06:21:37.801Z,11.47
2022-10-22T06:24:04.996Z,11.94
2022-10-22T06:26:32.036Z,11.85
2022-10-22T06:28:59.612Z,11.84
2022-10-22T06:31:27.061Z,10.88
2022-10-22T06:33:53.785Z,11.08
2022-10-22T06:36:23.129Z,11.17
2022-10-22T06:38:56.597Z,11.89
2022-10-22T06:41:25.764Z,11.89
2022-10-22T06:43:57.234Z,11.06
2022-10-22T06:46:24.952Z,11.90
2022-10-22T06:48:54.291Z,11.55
2022-10-22T06:51:23.726Z,11.94
2022-10-22T06:53:50.359Z,11.95
2022-10-22T06:56:19.570Z,11.98
2022-10-22T06:58:51.070Z,10.87
2022-10-22T07:01:20.427Z,12.05
2022-10-22T07:03:47.518Z,11.16
2022-10-22T07:06:14.954Z,11.82
2022-10-22T07:08:42.125Z,12.18
2022-10-22T07:11:09.801Z,12.25
2022-10-22T07:13:36.981Z,11.40
2022-10-22T07:16:04.944Z,12.26
2022-10-22T07:18:32.677Z,12.15
2022-10-22T07:20:59.636Z,12.39
2022-10-22T07:23:27.061Z,12.45
2022-10-22T07:25:53.766Z,12.49
2022-10-22T07:28:21.096Z,12.55
2022-10-22T07:30:47.726Z,12.61
2022-10-22T07:33:14.918Z,12.68
2022-10-22T07:35:42.315Z,12.76
2022-10-22T07:38:09.061Z,12.41
2022-10-22T07:40:36.285Z,12.91
2022-10-22T07:43:03.119Z,12.96
2022-10-22T07:45:29.802Z,13.03
2022-10-22T07:47:56.357Z,13.13
2022-10-22T07:50:22.944Z,13.16
2022-10-22T07:52:49.562Z,13.11
2022-10-22T07:55:16.158Z,13.41
2022-10-22T07:57:42.762Z,13.48
2022-10-22T08:00:10.319Z,13.56
2022-10-22T08:02:39.894Z,12.98
2022-10-22T08:05:07.445Z,12.95
2022-10-22T08:07:33.979Z,13.71
2022-10-22T08:10:00.592Z,13.84
2022-10-22T08:12:27.747Z,13.86
2022-10-22T08:14:54.623Z,13.86
2022-10-22T08:17:21.212Z,13.71
2022-10-22T08:19:47.759Z,13.87
2022-10-22T08:22:14.361Z,13.15
2022-10-22T08:24:41.398Z,13.90
2022-10-22T08:27:07.999Z,13.97
2022-10-22T08:29:34.565Z,14.03
2022-10-22T08:32:02.827Z,14.11
2022-10-22T08:34:30.885Z,14.16
2022-10-22T08:36:57.562Z,14.22
2022-10-22T08:39:24.166Z,13.65
2022-10-22T08:41:56.513Z,14.07
2022-10-22T08:44:39.049Z,13.69
2022-10-22T08:47:24.282Z,14.59
2022-10-22T08:49:53.545Z,13.91
2022-10-22T08:52:20.679Z,14.27
2022-10-22T08:54:55.563Z,14.53
2022-10-22T08:57:40.779Z,15.12
2022-10-22T09:00:46.261Z,15.27
2022-10-22T09:03:49.787Z,14.62
2022-10-22T09:06:24.498Z,15.46
2022-10-22T09:08:52.760Z,15.57
2022-10-22T09:11:33.107Z,15.63
2022-10-22T09:14:02.929Z,15.76
2022-10-22T09:17:02.058Z,15.89
2022-10-22T09:19:43.799Z,16.01
2022-10-22T09:22:27.348Z,15.49
2022-10-22T09:25:11.684Z,15.39
2022-10-22T09:27:38.204Z,15.25
2022-10-22T09:30:05.482Z,15.36
2022-10-22T09:32:33.063Z,16.37
2022-10-22T09:34:59.663Z,16.44
2022-10-22T09:37:28.669Z,16.44
2022-10-22T09:39:57.322Z,16.51
2022-10-22T09:42:23.882Z,16.53
2022-10-22T09:44:59.201Z,16.65
2022-10-22T09:48:00.531Z,15.96
2022-10-22T09:50:48.687Z,16.72
2022-10-22T09:53:27.014Z,16.75
2022-10-22T09:55:59.616Z,16.77
2022-10-22T09:58:27.121Z,16.80
2022-10-22T10:00:58.464Z,16.80
2022-10-22T10:03:28.930Z,16.85
2022-10-22T10:06:01.570Z,15.70
2022-10-22T10:08:31.788Z,16.05
2022-10-22T10:11:19.649Z,16.96
2022-10-22T10:13:53.447Z,16.98
2022-10-22T10:16:44.144Z,17.03
2022-10-22T10:19:29.310Z,17.17
2022-10-22T10:22:14.517Z,17.25
2022-10-22T10:25:22.841Z,17.40
2022-10-22T10:27:54.135Z,16.80
2022-10-22T10:30:24.714Z,17.64
2022-10-22T10:33:08.471Z,17.61
2022-10-22T10:35:47.102Z,17.78
2022-10-22T10:38:43.224Z,17.77
2022-10-22T10:41:25.374Z,16.92
2022-10-22T10:44:33.279Z,17.95
2022-10-22T10:47:12.337Z,17.92
2022-10-22T10:49:38.876Z,18.13
2022-10-22T10:52:32.571Z,18.13
2022-10-22T10:55:15.340Z,18.24
2022-10-22T10:58:20.338Z,18.29
2022-10-22T11:00:55.597Z,17.33
2022-10-22T11:03:40.388Z,18.15
2022-10-22T11:06:12.165Z,18.11
2022-10-22T11:09:11.095Z,18.12
2022-10-22T11:12:00.997Z,17.25
2022-10-22T11:14:48.518Z,17.07
2022-10-22T11:17:18.394Z,17.78
2022-10-22T11:19:57.806Z,17.75
2022-10-22T11:22:28.357Z,17.18
2022-10-22T11:25:13.626Z,17.78
2022-10-22T11:28:11.265Z,18.05
2022-10-22T11:30:43.441Z,18.21
2022-10-22T11:33:18.918Z,17.90
2022-10-22T11:35:47.070Z,17.70
2022-10-22T11:38:17.361Z,18.49
2022-10-22T11:40:51.937Z,18.28
2022-10-22T11:43:52.976Z,17.77
2022-10-22T11:46:19.644Z,18.24
2022-10-22T11:49:02.692Z,18.31
2022-10-22T11:51:31.946Z,18.21
2022-10-22T11:53:58.655Z,17.40
2022-10-22T11:56:27.345Z,17.71
2022-10-22T11:58:55.397Z,17.48
2022-10-22T12:01:23.736Z,17.59
2022-10-22T12:03:53.607Z,17.45
2022-10-22T12:06:25.339Z,17.88
2022-10-22T12:08:54.765Z,17.93
2022-10-22T12:11:39.537Z,17.94
2022-10-22T12:14:29.821Z,18.06
2022-10-22T12:17:09.702Z,18.01
2022-10-22T12:19:39.416Z,18.27
2022-10-22T12:22:17.067Z,18.36
2022-10-22T12:24:51.747Z,17.34
2022-10-22T12:27:34.640Z,18.51
2022-10-22T12:30:02.958Z,18.39
2022-10-22T12:32:39.000Z,17.43
2022-10-22T12:35:18.010Z,18.00
2022-10-22T12:37:45.056Z,17.95
2022-10-22T12:40:18.909Z,17.81
2022-10-22T12:43:12.354Z,17.82
2022-10-22T12:45:40.290Z,17.01
2022-10-22T12:48:17.394Z,17.02
2022-10-22T12:50:48.546Z,17.83
2022-10-22T12:53:17.719Z,17.84
2022-10-22T12:55:49.464Z,17.73
2022-10-22T12:58:25.432Z,17.66
2022-10-22T13:01:02.167Z,17.77
2022-10-22T13:03:38.460Z,18.03
2022-10-22T13:06:24.258Z,17.92
2022-10-22T13:09:00.116Z,18.01
2022-10-22T13:11:39.807Z,17.70
2022-10-22T13:14:28.465Z,17.96
2022-10-22T13:17:19.320Z,18.02
2022-10-22T13:19:47.809Z,17.88
2022-10-22T13:22:23.645Z,17.71
2022-10-22T13:24:51.197Z,17.66
2022-10-22T13:27:17.990Z,17.70
2022-10-22T13:29:44.944Z,17.75
2022-10-22T13:32:33.831Z,17.57
2022-10-22T13:35:02.616Z,16.60
2022-10-22T13:37:32.469Z,17.41
2022-10-22T13:39:59.048Z,17.22
2022-10-22T13:42:25.646Z,16.86
2022-10-22T13:44:52.213Z,17.00
2022-10-22T13:47:28.020Z,15.70
2022-10-22T13:49:58.498Z,16.17
2022-10-22T13:52:29.556Z,16.77
2022-10-22T13:54:56.122Z,16.88
2022-10-22T13:57:22.858Z,16.91
2022-10-22T13:59:49.538Z,17.01
2022-10-22T14:02:17.326Z,16.99
2022-10-22T14:04:47.275Z,17.15
2022-10-22T14:07:17.514Z,16.91
2022-10-22T14:09:44.105Z,17.25
2022-10-22T14:12:16.136Z,17.26
2022-10-22T14:14:43.260Z,16.86
2022-10-22T14:17:16.691Z,17.23
2022-10-22T14:19:46.585Z,17.53
2022-10-22T14:22:17.894Z,17.56
2022-10-22T14:24:45.613Z,17.55
2022-10-22T14:27:14.236Z,17.54
2022-10-22T14:29:41.453Z,17.49
2022-10-22T14:32:16.693Z,17.13
2022-10-22T14:34:43.315Z,16.86
2022-10-22T14:37:18.904Z,17.48
2022-10-22T14:39:47.039Z,17.50
2022-10-22T14:42:14.464Z,17.50
2022-10-22T14:44:41.080Z,17.48
2022-10-22T14:47:07.695Z,17.44
2022-10-22T14:49:34.385Z,16.32
2022-10-22T14:52:01.025Z,16.68
2022-10-22T14:54:28.319Z,17.33
2022-10-22T14:56:54.818Z,17.32
2022-10-22T14:59:21.374Z,17.41
2022-10-22T15:01:47.913Z,17.36
2022-10-22T15:04:15.033Z,16.91
2022-10-22T15:06:41.663Z,17.27
2022-10-22T15:09:08.284Z,17.20
2022-10-22T15:11:34.892Z,16.47
2022-10-22T15:14:01.479Z,16.93
2022-10-22T15:16:28.061Z,16.98
2022-10-22T15:18:54.625Z,16.91
2022-10-22T15:21:23.012Z,16.73
2022-10-22T15:23:49.761Z,16.37
2022-10-22T15:26:16.962Z,16.60
2022-10-22T15:28:43.595Z,16.48
2022-10-22T15:31:13.288Z,16.39
2022-10-22T15:33:41.822Z,16.28
2022-10-22T15:36:16.170Z,15.69
2022-10-22T15:38:42.756Z,15.46
2022-10-22T15:41:12.322Z,15.98
2022-10-22T15:43:38.984Z,15.33
2022-10-22T15:46:19.237Z,15.76
2022-10-22T15:48:46.345Z,15.62
2022-10-22T15:51:15.924Z,15.54
2022-10-22T15:53:43.114Z,14.88
2022-10-22T15:56:11.771Z,15.31
2022-10-22T15:58:38.348Z,15.19
2022-10-22T16:01:07.331Z,14.76
2022-10-22T16:03:34.577Z,15.01
2022-10-22T16:06:01.495Z,14.86
2022-10-22T16:08:29.198Z,14.74
2022-10-22T16:10:55.768Z,14.63
2022-10-22T16:13:24.176Z,14.50
2022-10-22T16:15:51.564Z,14.38
2022-10-22T16:18:18.873Z,14.26
2022-10-22T16:20:45.704Z,14.13
2022-10-22T16:23:12.305Z,13.48
2022-10-22T16:25:42.440Z,13.99
2022-10-22T16:28:10.733Z,13.88
2022-10-22T16:30:38.903Z,13.82
2022-10-22T16:33:06.739Z,13.77
2022-10-22T16:35:33.445Z,13.73
2022-10-22T16:38:00.040Z,13.25
2022-10-22T16:40:26.671Z,13.72
2022-10-22T16:42:53.225Z,13.66
2022-10-22T16:45:19.744Z,13.68
2022-10-22T16:47:47.028Z,12.83
2022-10-22T16:50:13.641Z,13.65
2022-10-22T16:52:40.168Z,13.21
2022-10-22T16:55:07.191Z,12.76
2022-10-22T16:57:34.034Z,13.01
2022-10-22T17:00:00.551Z,13.72
2022-10-22T17:02:27.105Z,12.88
2022-10-22T17:04:53.728Z,13.48
2022-10-22T17:07:20.287Z,12.76
2022-10-22T17:09:46.895Z,12.92
2022-10-22T17:12:13.668Z,12.75
2022-10-22T17:14:40.305Z,13.34
2022-10-22T17:17:06.924Z,13.34
2022-10-22T17:19:34.240Z,12.90
2022-10-22T17:22:00.837Z,13.17
2022-10-22T17:24:27.401Z,13.07
2022-10-22T17:26:54.031Z,12.28
2022-10-22T17:29:21.940Z,12.64
2022-10-22T17:31:50.116Z,12.85
2022-10-22T17:34:17.594Z,12.78
2022-10-22T17:36:44.255Z,12.12
2022-10-22T17:39:15.309Z,12.65
2022-10-22T17:41:41.837Z,12.26
2022-10-22T17:44:12.283Z,12.53
2022-10-22T17:46:39.276Z,12.48
2022-10-22T17:49:13.054Z,12.43
2022-10-22T17:51:40.190Z,11.78
2022-10-22T17:54:09.018Z,12.25
2022-10-22T17:56:37.669Z,12.14
2022-10-22T17:59:04.346Z,12.17
2022-10-22T18:01:34.557Z,12.14
2022-10-22T18:04:03.554Z,12.08
2022-10-22T18:06:30.954Z,12.03
2022-10-22T18:08:57.886Z,11.96
2022-10-22T18:11:27.002Z,11.76
2022-10-22T18:13:55.593Z,11.60
2022-10-22T18:16:22.481Z,11.82
2022-10-22T18:18:51.584Z,11.79
2022-10-22T18:21:19.024Z,11.76
2022-10-22T18:23:46.285Z,11.65
2022-10-22T18:26:14.046Z,11.70
2022-10-22T18:28:40.971Z,11.68
2022-10-22T18:31:10.048Z,11.66
2022-10-22T18:33:37.207Z,11.20
2022-10-22T18:36:05.806Z,11.58
2022-10-22T18:38:32.649Z,11.53
2022-10-22T18:40:59.284Z,10.95
2022-10-22T18:43:25.906Z,11.46
2022-10-22T18:45:52.761Z,11.42
2022-10-22T18:48:20.610Z,11.33
2022-10-22T18:50:47.337Z,10.94
2022-10-22T18:53:16.103Z,11.26
2022-10-22T18:55:42.898Z,11.24
2022-10-22T18:58:09.491Z,10.99
2022-10-22T19:00:36.821Z,11.03
2022-10-22T19:03:03.496Z,10.68
2022-10-22T19:05:30.646Z,11.05
2022-10-22T19:07:57.293Z,10.55
2022-10-22T19:10:23.899Z,10.96
2022-10-22T19:12:50.553Z,10.93
2022-10-22T19:15:17.260Z,10.87
2022-10-22T19:17:44.141Z,10.70
2022-10-22T19:20:13.649Z,10.79
2022-10-22T19:22:40.266Z,10.57
2022-10-22T19:25:09.753Z,10.71
2022-10-22T19:27:39.679Z,10.66
2022-10-22T19:30:07.052Z,9.77
2022-10-22T19:32:34.388Z,10.58
2022-10-22T19:35:00.971Z,10.53
2022-10-22T19:37:27.815Z,10.47
2022-10-22T19:39:54.352Z,10.41
2022-10-22T19:42:20.935Z,9.62
2022-10-22T19:44:47.524Z,10.35
2022-10-22T19:47:15.221Z,10.33
2022-10-22T19:49:42.532Z,9.73
2022-10-22T19:52:09.402Z,9.86
2022-10-22T19:54:40.636Z,10.25
2022-10-22T19:57:08.322Z,9.97
2022-10-22T19:59:34.956Z,10.18
2022-10-22T20:02:02.182Z,9.39
2022-10-22T20:04:29.180Z,8.98
2022-10-22T20:06:55.754Z,10.12
2022-10-22T20:09:22.992Z,10.07
2022-10-22T20:11:49.711Z,9.34
2022-10-22T20:14:16.256Z,9.25
2022-10-22T20:16:43.198Z,10.00
2022-10-22T20:19:13.393Z,9.96
2022-10-22T20:21:40.427Z,9.22
2022-10-22T20:24:07.032Z,9.89
2022-10-22T20:26:34.351Z,9.13
2022-10-22T20:29:00.922Z,9.46
2022-10-22T20:31:29.537Z,9.75
2022-10-22T20:34:01.201Z,8.76
2022-10-22T20:36:29.507Z,9.67
2022-10-22T20:39:01.847Z,8.95
2022-10-22T20:41:29.385Z,9.57
2022-10-22T20:43:56.334Z,8.64
2022-10-22T20:46:29.368Z,8.64
2022-10-22T20:49:05.494Z,9.51
2022-10-22T20:51:32.086Z,8.78
2022-10-22T20:53:58.710Z,8.83
2022-10-22T20:56:25.692Z,9.48
2022-10-22T20:59:03.806Z,9.15
2022-10-22T21:01:36.940Z,9.40
2022-10-22T21:04:04.409Z,8.63
2022-10-22T21:06:31.032Z,9.07
2022-10-22T21:08:57.696Z,8.44
2022-10-22T21:11:24.457Z,9.39
2022-10-22T21:13:51.600Z,8.21
2022-10-22T21:16:19.543Z,9.23
2022-10-22T21:18:47.253Z,8.89
2022-10-22T21:21:16.897Z,9.41
2022-10-22T21:23:43.726Z,9.43
2022-10-22T21:26:10.515Z,9.42
2022-10-22T21:28:37.647Z,9.40
2022-10-22T21:31:06.409Z,9.37
2022-10-22T21:33:39.107Z,8.92
2022-10-22T21:36:06.885Z,9.34
2022-10-22T21:38:34.594Z,8.75
2022-10-22T21:41:05.839Z,9.30
2022-10-22T21:43:32.242Z,9.26
2022-10-22T21:46:08.210Z,9.24
2022-10-22T21:48:36.658Z,8.82
2022-10-22T21:51:15.301Z,9.25
2022-10-22T21:53:42.623Z,9.25
2022-10-22T21:56:17.141Z,9.27
2022-10-22T21:58:43.966Z,8.23
2022-10-22T22:01:11.603Z,9.27
2022-10-22T22:03:38.502Z,9.26
2022-10-22T22:06:06.630Z,9.27
2022-10-22T22:08:34.041Z,8.49
2022-10-22T22:11:09.564Z,8.31
2022-10-22T22:13:36.810Z,9.25
2022-10-22T22:16:06.898Z,9.23
2022-10-22T22:18:34.898Z,9.20
2022-10-22T22:21:04.934Z,8.95
2022-10-22T22:23:31.616Z,9.18
2022-10-22T22:26:01.772Z,9.16
2022-10-22T22:28:32.439Z,9.07
2022-10-22T22:30:59.218Z,8.41
2022-10-22T22:33:26.364Z,8.62
2022-10-22T22:35:53.228Z,9.13
2022-10-22T22:38:19.759Z,9.12
2022-10-22T22:40:46.298Z,8.29
2022-10-22T22:43:12.879Z,9.13
2022-10-22T22:45:40.698Z,9.13
2022-10-22T22:48:07.813Z,8.45
2022-10-22T22:50:36.585Z,8.71
2022-10-22T22:53:03.244Z,8.91
2022-10-22T22:55:31.941Z,8.38
2022-10-22T22:57:58.802Z,8.57
2022-10-22T23:00:25.309Z,8.88
2022-10-22T23:02:55.884Z,9.04
2022-10-22T23:05:22.482Z,9.05
2022-10-22T23:07:49.048Z,8.24
2022-10-22T23:10:15.800Z,8.35
2022-10-22T23:12:42.740Z,8.23
2022-10-22T23:15:09.832Z,9.03
2022-10-22T23:20:08.719Z,9.01
2022-10-22T23:22:35.339Z,8.68
2022-10-22T23:25:01.895Z,9.02
2022-10-22T23:27:28.489Z,8.68
2022-10-22T23:29:55.034Z,8.90
2022-10-22T23:32:21.627Z,8.98
2022-10-22T23:34:48.391Z,8.10
2022-10-22T23:37:14.906Z,8.97
2022-10-22T23:39:41.553Z,8.96
2022-10-22T23:42:08.123Z,8.95
2022-10-22T23:44:34.714Z,8.95
2022-10-22T23:47:01.255Z,8.94
2022-10-22T23:49:28.315Z,8.93
2022-10-22T23:51:54.853Z,7.86
2022-10-22T23:54:21.498Z,8.91
2022-10-22T23:56:48.054Z,7.84
